createdAt,value
2023-05-24T00:00:44.941Z,45.76
2023-05-24T00:03:15.391Z,45.67
2023-05-24T00:05:43.466Z,45.71
2023-05-24T00:08:10.994Z,45.75
2023-05-24T00:10:38.591Z,45.81
2023-05-24T00:13:06.325Z,45.70
2023-05-24T00:15:34.014Z,45.90
2023-05-24T00:18:01.647Z,45.64
2023-05-24T00:20:29.300Z,46.08
2023-05-24T00:22:56.954Z,46.04
2023-05-24T00:25:24.653Z,45.86
2023-05-24T00:27:52.195Z,45.89
2023-05-24T00:30:19.906Z,45.69
2023-05-24T00:32:48.807Z,45.52
2023-05-24T00:35:16.450Z,45.94
2023-05-24T00:37:45.363Z,45.59
2023-05-24T00:40:13.654Z,45.35
2023-05-24T00:42:41.398Z,45.25
2023-05-24T00:45:09.846Z,45.22
2023-05-24T00:47:37.739Z,45.31
2023-05-24T00:50:08.361Z,45.18
2023-05-24T00:52:37.042Z,45.39
2023-05-24T00:55:06.055Z,45.61
2023-05-24T00:57:35.560Z,45.12
2023-05-24T01:00:05.948Z,45.51
2023-05-24T01:02:33.939Z,45.34
2023-05-24T01:05:01.575Z,45.24
2023-05-24T01:08:24.285Z,45.49
2023-05-24T01:11:04.476Z,45.38
2023-05-24T01:13:54.964Z,45.55
2023-05-24T01:16:41.872Z,45.80
2023-05-24T01:19:43.159Z,45.88
2023-05-24T01:23:07.356Z,46.07
2023-05-24T01:25:47.433Z,45.70
2023-05-24T01:28:17.913Z,45.59
2023-05-24T01:30:45.657Z,46.10
2023-05-24T01:33:13.759Z,46.03
2023-05-24T01:35:42.475Z,45.99
2023-05-24T01:38:14.286Z,46.17
2023-05-24T01:40:43.052Z,46.12
2023-05-24T01:43:37.518Z,46.11
2023-05-24T01:46:32.962Z,45.88
2023-05-24T01:49:25.673Z,45.69
2023-05-24T01:51:56.831Z,45.77
2023-05-24T01:54:26.714Z,46.28
2023-05-24T01:56:57.310Z,45.91
2023-05-24T01:59:28.710Z,45.98
2023-05-24T02:01:57.143Z,46.04
2023-05-24T02:04:25.297Z,46.17
2023-05-24T02:06:52.893Z,46.28
2023-05-24T02:09:20.584Z,46.19
2023-05-24T02:11:48.273Z,46.49
2023-05-24T02:14:17.330Z,46.52
2023-05-24T02:16:46.594Z,46.41
2023-05-24T02:19:14.611Z,46.41
2023-05-24T02:21:42.181Z,46.43
2023-05-24T02:24:12.549Z,46.29
2023-05-24T02:26:40.450Z,46.33
2023-05-24T02:29:08.112Z,46.48
2023-05-24T02:31:35.729Z,46.64
2023-05-24T02:34:03.473Z,46.70
2023-05-24T02:36:32.588Z,46.65
2023-05-24T02:39:00.569Z,46.67
2023-05-24T02:41:28.382Z,46.62
2023-05-24T02:43:55.974Z,46.49
2023-05-24T02:46:23.595Z,46.73
2023-05-24T02:48:51.168Z,46.84
2023-05-24T02:51:18.812Z,46.71
2023-05-24T02:53:46.362Z,46.73
2023-05-24T02:56:14.186Z,46.91
2023-05-24T02:58:42.694Z,46.81
2023-05-24T03:01:12.332Z,46.88
2023-05-24T03:03:40.469Z,47.15
2023-05-24T03:06:08.358Z,47.08
2023-05-24T03:08:37.280Z,46.98
2023-05-24T03:11:06.163Z,47.04
2023-05-24T03:13:35.224Z,47.05
2023-05-24T03:16:02.907Z,46.94
2023-05-24T03:18:31.078Z,47.00
2023-05-24T03:20:58.752Z,46.79
2023-05-24T03:23:26.287Z,46.92
2023-05-24T03:25:54.512Z,46.90
2023-05-24T03:28:22.240Z,46.92
2023-05-24T03:30:49.900Z,46.78
2023-05-24T03:33:18.684Z,47.07
2023-05-24T03:35:46.564Z,46.95
2023-05-24T03:38:14.141Z,46.87
2023-05-24T03:40:45.038Z,46.84
2023-05-24T03:43:21.627Z,46.97
2023-05-24T03:45:54.302Z,46.85
2023-05-24T03:48:21.912Z,46.95
2023-05-24T03:50:51.584Z,46.95
2023-05-24T03:53:22.866Z,47.02
2023-05-24T03:55:51.597Z,47.04
2023-05-24T03:58:19.201Z,47.22
2023-05-24T04:00:47.236Z,47.12
2023-05-24T04:03:15.091Z,47.28
2023-05-24T04:05:42.866Z,47.37
2023-05-24T04:08:12.299Z,47.36
2023-05-24T04:10:39.889Z,47.07
2023-05-24T04:13:08.668Z,47.23
2023-05-24T04:15:40.725Z,47.29
2023-05-24T04:18:08.434Z,47.36
2023-05-24T04:20:36.230Z,47.25
2023-05-24T04:23:03.833Z,47.43
2023-05-24T04:25:33.314Z,47.42
2023-05-24T04:28:02.398Z,47.30
2023-05-24T04:30:32.398Z,47.26
2023-05-24T04:33:00.164Z,47.36
2023-05-24T04:35:30.157Z,47.37
2023-05-24T04:37:59.637Z,47.52
2023-05-24T04:40:27.272Z,47.54
2023-05-24T04:42:54.820Z,47.76
2023-05-24T04:45:22.420Z,47.76
2023-05-24T04:47:50.021Z,47.67
2023-05-24T04:50:17.709Z,47.79
2023-05-24T04:52:45.837Z,47.68
2023-05-24T04:55:13.458Z,47.69
2023-05-24T04:57:41.201Z,47.76
2023-05-24T05:00:10.313Z,47.79
2023-05-24T05:02:38.189Z,47.76
2023-05-24T05:05:06.415Z,47.85
2023-05-24T05:07:34.064Z,47.66
2023-05-24T05:10:01.628Z,47.54
2023-05-24T05:12:29.176Z,47.68
2023-05-24T05:14:56.704Z,47.37
2023-05-24T05:17:24.240Z,47.17
2023-05-24T05:19:51.794Z,47.34
2023-05-24T05:22:19.505Z,47.23
2023-05-24T05:24:47.119Z,47.15
2023-05-24T05:27:14.754Z,47.21
2023-05-24T05:29:42.347Z,47.11
2023-05-24T05:32:10.036Z,46.81
2023-05-24T05:34:37.680Z,46.65
2023-05-24T05:37:05.465Z,46.59
2023-05-24T05:39:33.266Z,46.89
2023-05-24T05:42:02.214Z,46.68
2023-05-24T05:44:29.777Z,46.51
2023-05-24T05:46:57.363Z,46.70
2023-05-24T05:49:25.091Z,46.73
2023-05-24T05:51:53.078Z,46.56
2023-05-24T05:54:20.637Z,46.56
2023-05-24T05:56:48.377Z,46.60
2023-05-24T05:59:16.050Z,46.13
2023-05-24T06:01:47.089Z,46.22
2023-05-24T06:04:15.562Z,46.36
2023-05-24T06:06:45.253Z,46.39
2023-05-24T06:09:13.085Z,46.37
2023-05-24T06:11:44.636Z,46.02
2023-05-24T06:14:19.814Z,46.13
2023-05-24T06:16:47.917Z,46.03
2023-05-24T06:19:16.497Z,45.92
2023-05-24T06:21:47.942Z,46.09
2023-05-24T06:24:20.498Z,45.91
2023-05-24T06:26:50.053Z,46.00
2023-05-24T06:29:22.537Z,45.73
2023-05-24T06:31:50.856Z,45.78
2023-05-24T06:34:21.427Z,45.49
2023-05-24T06:36:51.008Z,45.86
2023-05-24T06:39:18.938Z,45.86
2023-05-24T06:41:47.122Z,45.92
2023-05-24T06:44:16.306Z,46.23
2023-05-24T06:46:43.927Z,46.15
2023-05-24T06:49:12.520Z,45.58
2023-05-24T06:51:40.203Z,45.70
2023-05-24T06:54:07.900Z,46.01
2023-05-24T06:56:35.569Z,45.86
2023-05-24T06:59:03.129Z,45.98
2023-05-24T07:01:30.774Z,45.63
2023-05-24T07:03:59.139Z,45.57
2023-05-24T07:06:26.970Z,45.29
2023-05-24T07:08:54.611Z,45.92
2023-05-24T07:11:22.727Z,45.97
2023-05-24T07:13:50.339Z,45.63
2023-05-24T07:16:17.882Z,45.52
2023-05-24T07:18:45.442Z,45.49
2023-05-24T07:21:12.976Z,45.59
2023-05-24T07:23:40.509Z,45.41
2023-05-24T07:26:09.086Z,45.46
2023-05-24T07:28:38.756Z,45.35
2023-05-24T07:31:09.879Z,45.19
2023-05-24T07:33:38.108Z,45.13
2023-05-24T07:36:06.712Z,45.11
2023-05-24T07:38:35.008Z,45.04
2023-05-24T07:41:04.677Z,45.00
2023-05-24T07:43:32.501Z,44.71
2023-05-24T07:46:00.186Z,44.97
2023-05-24T07:48:27.826Z,45.19
2023-05-24T07:50:55.360Z,45.16
2023-05-24T07:53:23.427Z,44.84
2023-05-24T07:55:51.659Z,45.14
2023-05-24T07:58:19.462Z,44.86
2023-05-24T08:00:47.054Z,44.99
2023-05-24T08:03:15.608Z,45.16
2023-05-24T08:05:43.787Z,45.00
2023-05-24T08:08:11.642Z,44.83
2023-05-24T08:10:39.350Z,44.85
2023-05-24T08:13:07.593Z,44.59
2023-05-24T08:15:35.123Z,44.74
2023-05-24T08:18:03.464Z,44.41
2023-05-24T08:20:31.527Z,44.56
2023-05-24T08:22:59.227Z,44.63
2023-05-24T08:25:27.234Z,44.68
2023-05-24T08:27:57.222Z,44.84
2023-05-24T08:30:24.931Z,44.86
2023-05-24T08:32:53.886Z,44.44
2023-05-24T08:35:22.112Z,44.75
2023-05-24T08:37:50.213Z,44.95
2023-05-24T08:40:18.164Z,44.27
2023-05-24T08:42:46.718Z,44.18
2023-05-24T08:45:16.050Z,44.14
2023-05-24T08:47:44.777Z,43.98
2023-05-24T08:50:13.682Z,44.21
2023-05-24T08:52:42.535Z,44.67
2023-05-24T08:55:11.866Z,44.52
2023-05-24T08:57:41.367Z,44.50
2023-05-24T09:00:11.764Z,44.36
2023-05-24T09:02:42.080Z,44.34
2023-05-24T09:05:12.562Z,44.24
2023-05-24T09:07:42.004Z,44.24
2023-05-24T09:10:10.881Z,44.22
2023-05-24T09:12:40.221Z,44.36
2023-05-24T09:15:08.922Z,44.33
2023-05-24T09:17:38.383Z,44.15
2023-05-24T09:20:10.397Z,43.82
2023-05-24T09:22:42.067Z,43.75
2023-05-24T09:25:13.353Z,43.33
2023-05-24T09:27:41.554Z,42.99
2023-05-24T09:30:11.054Z,43.10
2023-05-24T09:32:39.137Z,42.90
2023-05-24T09:35:10.709Z,42.96
2023-05-24T09:37:40.216Z,42.84
2023-05-24T09:40:20.184Z,42.76
2023-05-24T09:42:51.414Z,42.29
2023-05-24T09:45:19.108Z,42.39
2023-05-24T09:47:46.802Z,42.76
2023-05-24T09:50:17.690Z,42.75
2023-05-24T09:52:45.772Z,42.37
2023-05-24T09:55:18.507Z,42.10
2023-05-24T09:58:08.716Z,42.38
2023-05-24T10:00:41.333Z,41.83
2023-05-24T10:03:12.570Z,41.51
2023-05-24T10:05:45.293Z,40.98
2023-05-24T10:08:14.423Z,41.24
2023-05-24T10:10:43.362Z,41.48
2023-05-24T10:13:11.658Z,41.60
2023-05-24T10:15:39.386Z,41.25
2023-05-24T10:18:10.667Z,40.78
2023-05-24T10:20:44.304Z,40.63
2023-05-24T10:23:18.839Z,40.63
2023-05-24T10:25:55.697Z,40.88
2023-05-24T10:28:24.836Z,39.74
2023-05-24T10:31:15.776Z,39.81
2023-05-24T10:33:48.224Z,39.71
2023-05-24T10:36:16.422Z,39.73
2023-05-24T10:38:46.853Z,39.80
2023-05-24T10:41:14.521Z,39.76
2023-05-24T10:44:00.821Z,38.83
2023-05-24T10:46:35.714Z,38.86
2023-05-24T10:49:05.922Z,37.83
2023-05-24T10:51:38.168Z,37.42
2023-05-24T10:54:16.832Z,37.82
2023-05-24T10:56:49.991Z,37.54
2023-05-24T10:59:34.761Z,38.15
2023-05-24T11:02:06.287Z,36.66
2023-05-24T11:04:38.395Z,35.88
2023-05-24T11:07:11.520Z,36.44
2023-05-24T11:09:46.192Z,35.87
2023-05-24T11:12:18.429Z,36.26
2023-05-24T11:14:51.974Z,36.60
2023-05-24T11:17:23.748Z,37.36
2023-05-24T11:19:54.525Z,37.07
2023-05-24T11:22:25.141Z,37.25
2023-05-24T11:24:53.665Z,37.79
2023-05-24T11:27:21.600Z,37.89
2023-05-24T11:29:49.255Z,38.31
2023-05-24T11:32:19.587Z,38.43
2023-05-24T11:34:47.751Z,38.34
2023-05-24T11:37:18.093Z,37.79
2023-05-24T11:39:53.915Z,37.77
2023-05-24T11:42:23.253Z,37.32
2023-05-24T11:44:51.647Z,37.34
2023-05-24T11:47:22.211Z,37.08
2023-05-24T11:49:51.553Z,37.03
2023-05-24T11:52:19.117Z,36.26
2023-05-24T11:54:46.679Z,36.64
2023-05-24T11:57:15.691Z,36.38
2023-05-24T11:59:43.247Z,36.52
2023-05-24T12:02:10.932Z,35.55
2023-05-24T12:04:39.190Z,35.38
2023-05-24T12:07:14.194Z,35.69
2023-05-24T12:09:41.812Z,35.80
2023-05-24T12:12:09.917Z,36.00
2023-05-24T12:14:39.637Z,36.16
2023-05-24T12:17:17.168Z,36.14
2023-05-24T12:19:45.016Z,35.68
2023-05-24T12:22:12.547Z,35.74
2023-05-24T12:24:40.213Z,35.40
2023-05-24T12:27:08.666Z,34.89
2023-05-24T12:29:40.481Z,35.19
2023-05-24T12:32:15.294Z,35.42
2023-05-24T12:34:44.779Z,34.81
2023-05-24T12:37:15.346Z,33.86
2023-05-24T12:39:44.286Z,33.92
2023-05-24T12:42:16.065Z,34.02
2023-05-24T12:44:45.070Z,34.21
2023-05-24T12:47:12.816Z,33.13
2023-05-24T12:49:40.501Z,32.85
2023-05-24T12:52:08.097Z,32.96
2023-05-24T12:54:35.636Z,32.49
2023-05-24T12:57:03.769Z,31.68
2023-05-24T12:59:31.523Z,31.58
2023-05-24T13:01:59.151Z,32.34
2023-05-24T13:04:27.206Z,31.59
2023-05-24T13:06:55.495Z,31.28
2023-05-24T13:09:23.712Z,30.85
2023-05-24T13:11:52.406Z,30.82
2023-05-24T13:14:20.482Z,30.66
2023-05-24T13:16:48.510Z,30.75
2023-05-24T13:19:17.017Z,31.20
2023-05-24T13:21:44.906Z,30.62
2023-05-24T13:24:15.624Z,30.47
2023-05-24T13:26:43.350Z,30.77
2023-05-24T13:31:41.750Z,29.96
2023-05-24T13:34:11.090Z,29.50
2023-05-24T13:36:39.356Z,29.26
2023-05-24T13:41:40.624Z,28.46
2023-05-24T13:44:08.584Z,28.88
2023-05-24T13:46:36.541Z,29.29
2023-05-24T13:49:05.235Z,29.68
2023-05-24T13:51:33.483Z,29.69
2023-05-24T13:54:01.634Z,29.52
2023-05-24T13:56:35.189Z,29.25
2023-05-24T13:59:04.338Z,29.01
2023-05-24T14:01:34.090Z,28.39
2023-05-24T14:04:02.745Z,28.15
2023-05-24T14:06:31.856Z,28.72
2023-05-24T14:09:00.146Z,27.93
2023-05-24T14:11:31.429Z,27.83
2023-05-24T14:16:30.256Z,27.40
2023-05-24T14:18:57.980Z,27.80
2023-05-24T14:21:26.902Z,27.86
2023-05-24T14:23:54.882Z,27.63
2023-05-24T14:26:23.534Z,27.22
2023-05-24T14:28:54.375Z,26.93
2023-05-24T14:31:23.261Z,27.10
2023-05-24T14:33:50.959Z,26.89
2023-05-24T14:36:18.742Z,26.76
2023-05-24T14:38:46.609Z,26.60
2023-05-24T14:41:15.315Z,26.69
2023-05-24T14:43:42.945Z,26.63
2023-05-24T14:46:10.812Z,26.57
2023-05-24T14:48:41.356Z,27.20
2023-05-24T14:51:09.168Z,27.01
2023-05-24T14:53:36.782Z,26.87
2023-05-24T14:56:06.240Z,27.47
2023-05-24T14:58:33.953Z,27.19
2023-05-24T15:01:02.783Z,27.13
2023-05-24T15:03:30.480Z,26.46
2023-05-24T15:05:58.812Z,25.92
2023-05-24T15:08:26.393Z,26.60
2023-05-24T15:10:54.039Z,26.35
2023-05-24T15:13:22.951Z,26.98
2023-05-24T15:15:50.518Z,26.88
2023-05-24T15:18:18.151Z,26.88
2023-05-24T15:20:46.126Z,26.61
2023-05-24T15:23:14.041Z,26.63
2023-05-24T15:25:42.800Z,26.76
2023-05-24T15:28:12.731Z,27.59
2023-05-24T15:30:44.337Z,27.71
2023-05-24T15:33:13.104Z,28.40
2023-05-24T15:35:41.529Z,28.01
2023-05-24T15:38:09.217Z,28.40
2023-05-24T15:40:38.519Z,28.23
2023-05-24T15:43:06.685Z,28.26
2023-05-24T15:45:34.347Z,28.31
2023-05-24T15:48:05.923Z,28.42
2023-05-24T15:50:47.939Z,28.39
2023-05-24T15:53:21.776Z,28.60
2023-05-24T15:55:49.661Z,28.31
2023-05-24T15:58:18.321Z,28.09
2023-05-24T16:00:46.160Z,28.52
2023-05-24T16:03:15.712Z,28.96
2023-05-24T16:05:43.692Z,29.46
2023-05-24T16:08:11.296Z,29.74
2023-05-24T16:10:38.827Z,29.83
2023-05-24T16:13:06.608Z,29.78
2023-05-24T16:15:35.996Z,29.69
2023-05-24T16:18:08.303Z,29.58
2023-05-24T16:20:36.554Z,29.63
2023-05-24T16:23:04.386Z,29.80
2023-05-24T16:25:32.385Z,29.79
2023-05-24T16:28:00.399Z,30.16
2023-05-24T16:30:27.965Z,30.45
2023-05-24T16:32:55.707Z,29.98
2023-05-24T16:35:23.286Z,30.42
2023-05-24T16:37:51.707Z,30.25
2023-05-24T16:40:19.295Z,30.56
2023-05-24T16:42:46.934Z,30.64
2023-05-24T16:45:14.952Z,30.74
2023-05-24T16:47:42.605Z,31.07
2023-05-24T16:50:14.841Z,31.40
2023-05-24T16:52:43.293Z,31.04
2023-05-24T16:55:15.921Z,31.16
2023-05-24T16:57:43.572Z,31.10
2023-05-24T17:00:11.928Z,31.13
2023-05-24T17:02:39.555Z,31.22
2023-05-24T17:05:08.373Z,31.04
2023-05-24T17:07:36.508Z,30.93
2023-05-24T17:10:04.606Z,31.15
2023-05-24T17:12:32.155Z,31.19
2023-05-24T17:14:59.699Z,31.26
2023-05-24T17:17:27.305Z,30.98
2023-05-24T17:19:54.874Z,30.92
2023-05-24T17:22:22.403Z,30.92
2023-05-24T17:24:49.961Z,31.07
2023-05-24T17:27:22.139Z,30.98
2023-05-24T17:29:50.196Z,30.80
2023-05-24T17:32:17.790Z,30.95
2023-05-24T17:34:45.430Z,31.03
2023-05-24T17:37:13.128Z,30.83
2023-05-24T17:39:40.809Z,30.33
2023-05-24T17:42:08.369Z,30.03
2023-05-24T17:44:35.991Z,29.70
2023-05-24T17:47:07.629Z,29.45
2023-05-24T17:49:38.183Z,29.36
2023-05-24T17:52:05.735Z,28.95
2023-05-24T17:54:33.359Z,28.92
2023-05-24T17:57:01.745Z,29.09
2023-05-24T17:59:29.406Z,28.95
2023-05-24T18:01:57.096Z,28.93
2023-05-24T18:04:24.770Z,28.86
2023-05-24T18:06:52.340Z,28.81
2023-05-24T18:09:21.630Z,28.99
2023-05-24T18:11:49.741Z,29.33
2023-05-24T18:14:18.242Z,28.98
2023-05-24T18:16:46.000Z,29.17
2023-05-24T18:19:13.686Z,29.22
2023-05-24T18:21:41.371Z,29.21
2023-05-24T18:24:09.002Z,29.12
2023-05-24T18:26:36.904Z,29.01
2023-05-24T18:29:04.514Z,29.24
2023-05-24T18:31:32.075Z,28.90
2023-05-24T18:34:01.763Z,28.96
2023-05-24T18:36:29.963Z,28.93
2023-05-24T18:38:57.535Z,28.96
2023-05-24T18:41:25.677Z,29.04
2023-05-24T18:43:53.292Z,29.14
2023-05-24T18:46:21.069Z,29.27
2023-05-24T18:48:48.727Z,29.05
2023-05-24T18:51:16.512Z,28.80
2023-05-24T18:53:44.140Z,28.62
2023-05-24T18:56:11.764Z,28.43
2023-05-24T18:58:39.895Z,28.24
2023-05-24T19:01:09.595Z,28.02
2023-05-24T19:03:39.099Z,27.87
2023-05-24T19:06:06.931Z,27.54
2023-05-24T19:08:34.507Z,27.44
2023-05-24T19:11:02.082Z,27.23
2023-05-24T19:13:29.608Z,27.23
2023-05-24T19:15:57.252Z,27.16
2023-05-24T19:18:24.893Z,27.10
2023-05-24T19:20:52.464Z,26.99
2023-05-24T19:23:19.998Z,26.91
2023-05-24T19:25:50.099Z,27.11
2023-05-24T19:28:17.835Z,27.04
2023-05-24T19:30:45.408Z,27.24
2023-05-24T19:33:12.981Z,27.31
2023-05-24T19:35:40.637Z,27.69
2023-05-24T19:38:08.405Z,27.87
2023-05-24T19:40:35.919Z,28.38
2023-05-24T19:43:03.543Z,28.48
2023-05-24T19:45:31.032Z,28.70
2023-05-24T19:47:58.732Z,28.83
2023-05-24T19:50:28.426Z,29.05
2023-05-24T19:52:58.127Z,29.72
2023-05-24T19:55:25.897Z,30.05
2023-05-24T19:57:53.415Z,30.45
2023-05-24T20:00:21.291Z,30.96
2023-05-24T20:02:48.935Z,31.39
2023-05-24T20:05:17.315Z,31.54
2023-05-24T20:07:44.825Z,31.98
2023-05-24T20:10:12.832Z,32.31
2023-05-24T20:12:41.105Z,32.31
2023-05-24T20:15:09.937Z,33.06
2023-05-24T20:17:37.586Z,33.00
2023-05-24T20:20:06.056Z,33.58
2023-05-24T20:22:33.610Z,33.75
2023-05-24T20:25:01.176Z,34.04
2023-05-24T20:27:28.746Z,34.05
2023-05-24T20:29:56.362Z,34.43
2023-05-24T20:32:24.018Z,34.42
2023-05-24T20:34:51.546Z,34.65
2023-05-24T20:37:19.102Z,34.59
2023-05-24T20:39:46.615Z,34.57
2023-05-24T20:42:14.247Z,34.82
2023-05-24T20:44:41.827Z,34.89
2023-05-24T20:47:09.536Z,35.00
2023-05-24T20:49:37.157Z,34.97
2023-05-24T20:52:05.195Z,35.12
2023-05-24T20:54:32.761Z,35.13
2023-05-24T20:57:01.428Z,35.06
2023-05-24T20:59:30.376Z,35.37
2023-05-24T21:01:57.994Z,35.28
2023-05-24T21:04:25.982Z,35.48
2023-05-24T21:06:54.995Z,35.62
2023-05-24T21:09:22.672Z,35.72
2023-05-24T21:11:50.221Z,35.65
2023-05-24T21:14:17.818Z,35.80
2023-05-24T21:16:45.512Z,36.08
2023-05-24T21:19:13.457Z,36.25
2023-05-24T21:21:41.013Z,36.54
2023-05-24T21:24:08.552Z,36.43
2023-05-24T21:26:36.112Z,36.58
2023-05-24T21:29:03.706Z,36.72
2023-05-24T21:31:31.882Z,37.19
2023-05-24T21:33:59.563Z,37.28
2023-05-24T21:36:27.242Z,37.36
2023-05-24T21:38:56.898Z,37.35
2023-05-24T21:41:25.090Z,37.50
2023-05-24T21:43:52.667Z,37.55
2023-05-24T21:46:20.265Z,37.71
2023-05-24T21:48:47.833Z,37.84
2023-05-24T21:51:15.659Z,37.94
2023-05-24T21:53:43.307Z,38.07
2023-05-24T21:56:10.892Z,38.18
2023-05-24T21:58:38.435Z,38.45
2023-05-24T22:01:06.147Z,38.49
2023-05-24T22:03:34.010Z,38.76
2023-05-24T22:06:01.668Z,38.79
2023-05-24T22:08:30.346Z,38.82
2023-05-24T22:10:58.214Z,38.82
2023-05-24T22:13:26.437Z,38.82
2023-05-24T22:15:53.984Z,38.85
2023-05-24T22:18:22.126Z,38.69
2023-05-24T22:20:50.850Z,38.71
2023-05-24T22:23:18.483Z,38.81
2023-05-24T22:25:46.025Z,38.79
2023-05-24T22:28:13.590Z,38.78
2023-05-24T22:30:41.703Z,38.83
2023-05-24T22:33:09.301Z,38.68
2023-05-24T22:35:37.232Z,38.88
2023-05-24T22:38:04.833Z,38.88
2023-05-24T22:40:32.458Z,38.82
2023-05-24T22:43:00.078Z,38.95
2023-05-24T22:45:27.735Z,38.91
2023-05-24T22:47:58.240Z,39.02
2023-05-24T22:50:26.898Z,39.04
2023-05-24T22:52:56.530Z,39.04
2023-05-24T22:55:24.101Z,39.13
2023-05-24T22:57:51.716Z,39.19
2023-05-24T23:00:20.542Z,39.29
2023-05-24T23:02:48.196Z,39.21
2023-05-24T23:05:15.924Z,39.25
2023-05-24T23:07:43.558Z,39.18
2023-05-24T23:10:11.139Z,39.22
2023-05-24T23:12:42.104Z,39.22
2023-05-24T23:15:18.402Z,39.28
2023-05-24T23:17:47.061Z,39.24
2023-05-24T23:20:14.812Z,39.18
2023-05-24T23:22:42.486Z,39.27
2023-05-24T23:25:10.584Z,39.27
2023-05-24T23:27:39.357Z,39.48
2023-05-24T23:30:07.809Z,39.54
2023-05-24T23:32:35.395Z,39.56
2023-05-24T23:35:03.015Z,39.66
2023-05-24T23:37:30.566Z,39.75
2023-05-24T23:40:02.200Z,39.87
2023-05-24T23:42:29.732Z,39.95
2023-05-24T23:44:57.328Z,39.86
2023-05-24T23:47:24.882Z,39.95
2023-05-24T23:49:52.499Z,40.06
2023-05-24T23:52:20.361Z,40.07
2023-05-24T23:54:47.979Z,40.27
2023-05-24T23:57:15.577Z,40.32
2023-05-24T23:59:43.533Z,40.38
